Palou 2 — FAA5132 — position and weather

sailwx.info

Track history (hours):
 
Tides and Currents Weather Stations Pressure Air Temp Water Temp Dewpoint Dewpoint Depression Visibility Wind Speed Wind Dir Waves Ship Positions

Palou 2

Last reported at 2017-Oct-01 16:16 UTC. Time now 2017-Nov-20 12:13 UTC.
Position N 47°35' W 003°01'.
Warning: this ship's position is 49 days out of date.

Length 12 m.

Type: Sailing vessel. MMSI: 227129920.

Date/timePositionNaut miles runAvg speedWind from/ knotsBaromVisibWave heightAir tempDewpointWater temp
2017-Oct-01 16:16N 47°35' W 003°01'0 0.0
2017-Oct-01 15:55N 47°35' W 003°01'0 0.3
2017-Oct-01 15:28N 47°35' W 003°02'0 0.0
2017-Oct-01 14:58N 47°35' W 003°02'0 0.1
2017-Oct-01 14:30N 47°35' W 003°02'3 6.0
2017-Oct-01 14:00N 47°33' W 002°60'4 7.0
2017-Oct-01 13:30N 47°29' W 002°58'22 0.5
2017-Sep-29 18:29N 47°45' W 003°21'0 0.0
2017-Sep-29 17:59N 47°45' W 003°21'0 0.0
2017-Sep-29 17:29N 47°45' W 003°21'0 0.0
2017-Sep-29 16:59N 47°45' W 003°21'0 0.9
2017-Sep-29 16:31N 47°45' W 003°21'2 3.0
2017-Sep-29 16:00N 47°43' W 003°22'2 3.3
2017-Sep-29 15:30N 47°42' W 003°23'2 3.4
2017-Sep-29 15:00N 47°41' W 003°25'2 3.2
2017-Sep-29 14:30N 47°40' W 003°28'2 4.2
2017-Sep-29 14:00N 47°39' W 003°30'3 4.4
2017-Sep-29 13:23N 47°39' W 003°34'  
2017-Sep-26 12:25N 47°41' W 003°36'1 3.2
2017-Sep-26 12:00N 47°40' W 003°34'1 2.8
2017-Sep-26 11:29N 47°40' W 003°32'2 4.9
2017-Sep-26 11:00N 47°39' W 003°28'1 0.1
2017-Sep-25 18:11N 47°39' W 003°27'0 0.1
2017-Sep-25 18:00N 47°39' W 003°27'2 3.5
2017-Sep-25 17:29N 47°39' W 003°24'1 1.9
2017-Sep-25 17:00N 47°39' W 003°23'2 3.1
2017-Sep-25 16:30N 47°38' W 003°21'1 2.9
2017-Sep-25 16:00N 47°38' W 003°19'2 4.1
2017-Sep-25 15:30N 47°36' W 003°17'2 4.3
2017-Sep-25 15:00N 47°35' W 003°15'2 4.5
2017-Sep-25 14:30N 47°33' W 003°13'2 3.9
2017-Sep-25 14:00N 47°34' W 003°11'1 2.5
2017-Sep-25 13:28N 47°33' W 003°09'0 0.1
2017-Sep-25 11:47N 47°33' W 003°10'0 1.2
2017-Sep-25 11:31N 47°33' W 003°10'2 4.1
2017-Sep-25 11:00N 47°31' W 003°10'2 4.8
2017-Sep-25 10:30N 47°29' W 003°10'2 4.6
2017-Sep-25 10:00N 47°26' W 003°09'3 5.4
2017-Sep-25 09:29N 47°27' W 003°05'3 6.4
2017-Sep-25 09:00N 47°28' W 003°00'3 5.8
2017-Sep-25 08:30N 47°31' W 003°01'2 4.0
2017-Sep-25 08:00N 47°33' W 003°01'2 4.2
2017-Sep-25 07:30N 47°35' W 003°01'0 0.0
2017-Sep-24 19:02N 47°35' W 003°01'0 0.0
2017-Sep-24 19:00N 47°35' W 003°01'0 0.0
2017-Sep-24 15:22N 47°35' W 003°01'0 0.9
2017-Sep-24 15:00N 47°35' W 003°01'2 4.5
2017-Sep-24 14:30N 47°33' W 003°00'2 3.5
2017-Sep-24 14:00N 47°32' W 002°59'2 3.4
2017-Sep-24 13:30N 47°30' W 002°57'2 4.2
2017-Sep-24 13:00N 47°29' W 002°55'2 4.3
2017-Sep-24 12:29N 47°30' W 002°52'2 5.0
2017-Sep-24 11:59N 47°31' W 002°55'2 4.6
2017-Sep-24 11:30N 47°31' W 002°58'2 4.9
2017-Sep-24 11:00N 47°29' W 003°01'2 3.7
2017-Sep-24 10:30N 47°27' W 002°60'  
Track history (hours):
 
Tides and Currents Weather Stations Pressure Air Temp Water Temp Dewpoint Dewpoint Depression Visibility Wind Speed Wind Dir Waves Ship Positions

Palou 2

Last reported at 2017-Oct-01 16:16 UTC. Time now 2017-Nov-20 12:13 UTC.
Position N 47°35' W 003°01'.
Warning: this ship's position is 49 days out of date.

Length 12 m.

Type: Sailing vessel. MMSI: 227129920.

Date/timePositionNaut miles runAvg speedWind from/ knotsBaromVisibWave heightAir tempDewpointWater temp
2017-Oct-01 16:16N 47°35' W 003°01'0 0.0
2017-Oct-01 15:55N 47°35' W 003°01'0 0.3
2017-Oct-01 15:28N 47°35' W 003°02'0 0.0
2017-Oct-01 14:58N 47°35' W 003°02'0 0.1
2017-Oct-01 14:30N 47°35' W 003°02'3 6.0
2017-Oct-01 14:00N 47°33' W 002°60'4 7.0
2017-Oct-01 13:30N 47°29' W 002°58'22 0.5
2017-Sep-29 18:29N 47°45' W 003°21'0 0.0
2017-Sep-29 17:59N 47°45' W 003°21'0 0.0
2017-Sep-29 17:29N 47°45' W 003°21'0 0.0
2017-Sep-29 16:59N 47°45' W 003°21'0 0.9
2017-Sep-29 16:31N 47°45' W 003°21'2 3.0
2017-Sep-29 16:00N 47°43' W 003°22'2 3.3
2017-Sep-29 15:30N 47°42' W 003°23'2 3.4
2017-Sep-29 15:00N 47°41' W 003°25'2 3.2
2017-Sep-29 14:30N 47°40' W 003°28'2 4.2
2017-Sep-29 14:00N 47°39' W 003°30'3 4.4
2017-Sep-29 13:23N 47°39' W 003°34'  
2017-Sep-26 12:25N 47°41' W 003°36'1 3.2
2017-Sep-26 12:00N 47°40' W 003°34'1 2.8
2017-Sep-26 11:29N 47°40' W 003°32'2 4.9
2017-Sep-26 11:00N 47°39' W 003°28'1 0.1
2017-Sep-25 18:11N 47°39' W 003°27'0 0.1
2017-Sep-25 18:00N 47°39' W 003°27'2 3.5
2017-Sep-25 17:29N 47°39' W 003°24'1 1.9
2017-Sep-25 17:00N 47°39' W 003°23'2 3.1
2017-Sep-25 16:30N 47°38' W 003°21'1 2.9
2017-Sep-25 16:00N 47°38' W 003°19'2 4.1
2017-Sep-25 15:30N 47°36' W 003°17'2 4.3
2017-Sep-25 15:00N 47°35' W 003°15'2 4.5
2017-Sep-25 14:30N 47°33' W 003°13'2 3.9
2017-Sep-25 14:00N 47°34' W 003°11'1 2.5
2017-Sep-25 13:28N 47°33' W 003°09'0 0.1
2017-Sep-25 11:47N 47°33' W 003°10'0 1.2
2017-Sep-25 11:31N 47°33' W 003°10'2 4.1
2017-Sep-25 11:00N 47°31' W 003°10'2 4.8
2017-Sep-25 10:30N 47°29' W 003°10'2 4.6
2017-Sep-25 10:00N 47°26' W 003°09'3 5.4
2017-Sep-25 09:29N 47°27' W 003°05'3 6.4
2017-Sep-25 09:00N 47°28' W 003°00'3 5.8
2017-Sep-25 08:30N 47°31' W 003°01'2 4.0
2017-Sep-25 08:00N 47°33' W 003°01'2 4.2
2017-Sep-25 07:30N 47°35' W 003°01'0 0.0
2017-Sep-24 19:02N 47°35' W 003°01'0 0.0
2017-Sep-24 19:00N 47°35' W 003°01'0 0.0
2017-Sep-24 15:22N 47°35' W 003°01'0 0.9
2017-Sep-24 15:00N 47°35' W 003°01'2 4.5
2017-Sep-24 14:30N 47°33' W 003°00'2 3.5
2017-Sep-24 14:00N 47°32' W 002°59'2 3.4
2017-Sep-24 13:30N 47°30' W 002°57'2 4.2
2017-Sep-24 13:00N 47°29' W 002°55'2 4.3
2017-Sep-24 12:29N 47°30' W 002°52'2 5.0
2017-Sep-24 11:59N 47°31' W 002°55'2 4.6
2017-Sep-24 11:30N 47°31' W 002°58'2 4.9
2017-Sep-24 11:00N 47°29' W 003°01'2 3.7
2017-Sep-24 10:30N 47°27' W 002°60'  

Dump ship's entire track history